TimeHDT,TemperatureF,Dew PointF,Humidity,Sea Level PressureIn,VisibilityMPH,Wind Direction,Wind SpeedMPH,Gust SpeedMPH,PrecipitationIn,Events,Conditions,WindDirDegrees,DateUTC
12:16 AM,48.2,44.6,87,29.58,1.8,ESE,20.7,-,N/A,,Overcast,120,2013-10-01 09:16:00
12:36 AM,48.2,44.6,87,29.56,2.0,ESE,19.6,-,N/A,,Overcast,120,2013-10-01 09:36:00
12:56 AM,48.2,44.6,87,29.53,1.8,ESE,20.7,26.5,N/A,,Overcast,120,2013-10-01 09:56:00
1:16 AM,48.2,44.6,87,29.51,1.2,ESE,21.9,27.6,N/A,,Overcast,120,2013-10-01 10:16:00
1:36 AM,48.2,44.6,87,29.48,1.0,ESE,23.0,27.6,N/A,,Overcast,120,2013-10-01 10:36:00
1:56 AM,48.2,46.4,93,29.45,1.2,SE,16.1,27.6,N/A,,Overcast,130,2013-10-01 10:56:00
2:16 AM,48.2,46.4,93,29.43,1.2,SE,19.6,-,N/A,,Overcast,140,2013-10-01 11:16:00
2:36 AM,50.0,46.4,87,29.41,2.0,SE,16.1,27.6,N/A,,Overcast,140,2013-10-01 11:36:00
2:56 AM,50.0,46.4,87,29.41,5.0,South,16.1,-,N/A,,Overcast,170,2013-10-01 11:56:00
3:16 AM,48.2,44.6,87,29.40,9.0,SSW,8.1,-,N/A,,Overcast,210,2013-10-01 12:16:00
3:36 AM,48.2,44.6,87,29.40,10.0,SW,10.4,-,N/A,,Overcast,230,2013-10-01 12:36:00
3:56 AM,48.2,44.6,87,29.39,10.0,SW,13.8,19.6,N/A,,Overcast,220,2013-10-01 12:56:00
4:16 AM,48.2,44.6,87,29.38,10.0,SW,10.4,-,N/A,,Mostly Cloudy,230,2013-10-01 13:16:00
4:36 AM,48.2,44.6,87,29.37,10.0,SSW,11.5,-,N/A,,Mostly Cloudy,210,2013-10-01 13:36:00
4:56 AM,48.2,44.6,87,29.36,10.0,SSW,13.8,-,N/A,,Mostly Cloudy,210,2013-10-01 13:56:00
5:16 AM,46.4,42.8,87,29.34,10.0,SSW,9.2,-,N/A,,Mostly Cloudy,200,2013-10-01 14:16:00
5:36 AM,46.4,42.8,87,29.33,10.0,SW,16.1,21.9,N/A,,Mostly Cloudy,220,2013-10-01 14:36:00
5:56 AM,46.4,41.0,81,29.33,10.0,SW,17.3,-,N/A,,Partly Cloudy,220,2013-10-01 14:56:00
6:16 AM,46.4,41.0,81,29.32,10.0,SSW,17.3,-,N/A,,Mostly Cloudy,210,2013-10-01 15:16:00
6:36 AM,46.4,41.0,81,29.32,10.0,SW,10.4,-,N/A,,Partly Cloudy,230,2013-10-01 15:36:00
6:56 AM,46.4,41.0,81,29.31,10.0,WSW,12.7,-,N/A,,Scattered Clouds,240,2013-10-01 15:56:00
7:16 AM,46.4,42.8,87,29.30,4.0,WSW,8.1,-,N/A,,Overcast,250,2013-10-01 16:16:00
7:36 AM,44.6,41.0,87,29.30,10.0,West,6.9,-,N/A,,Mostly Cloudy,270,2013-10-01 16:36:00
7:56 AM,44.6,41.0,87,29.29,10.0,SSW,6.9,-,N/A,,Overcast,200,2013-10-01 16:56:00
8:16 AM,44.6,41.0,87,29.28,10.0,SSW,11.5,-,N/A,,Scattered Clouds,210,2013-10-01 17:16:00
8:36 AM,46.4,41.0,81,29.28,10.0,SW,11.5,-,N/A,,Mostly Cloudy,230,2013-10-01 17:36:00
8:56 AM,44.6,39.2,81,29.27,10.0,SW,13.8,-,N/A,,Overcast,220,2013-10-01 17:56:00
9:16 AM,44.6,39.2,81,29.27,10.0,SSW,12.7,-,N/A,,Mostly Cloudy,210,2013-10-01 18:16:00
9:36 AM,46.4,39.2,76,29.26,9.0,SSW,15.0,21.9,N/A,,Mostly Cloudy,200,2013-10-01 18:36:00
9:56 AM,46.4,41.0,81,29.26,9.0,SSW,13.8,21.9,N/A,,Overcast,210,2013-10-01 18:56:00
10:16 AM,46.4,41.0,81,29.25,8.0,South,10.4,-,N/A,,Overcast,190,2013-10-01 19:16:00
10:36 AM,46.4,39.2,76,29.24,10.0,SSW,17.3,21.9,N/A,,Mostly Cloudy,210,2013-10-01 19:36:00
10:56 AM,46.4,39.2,76,29.23,10.0,SSW,18.4,24.2,N/A,,Overcast,210,2013-10-01 19:56:00
11:16 AM,46.4,39.2,76,29.23,10.0,SSW,13.8,-,N/A,,Overcast,210,2013-10-01 20:16:00
11:36 AM,46.4,41.0,81,29.21,8.0,South,19.6,26.5,N/A,,Overcast,180,2013-10-01 20:36:00
11:56 AM,46.4,41.0,81,29.20,10.0,South,18.4,26.5,N/A,,Overcast,190,2013-10-01 20:56:00
12:16 PM,46.4,41.0,81,29.19,9.0,SSW,15.0,23.0,N/A,,Overcast,200,2013-10-01 21:16:00
12:36 PM,46.4,41.0,81,29.18,10.0,SSW,16.1,19.6,N/A,,Overcast,200,2013-10-01 21:36:00
12:56 PM,46.4,39.2,76,29.16,10.0,SSW,10.4,-,N/A,,Overcast,210,2013-10-01 21:56:00
1:16 PM,46.4,39.2,76,29.15,7.0,South,12.7,16.1,N/A,,Overcast,190,2013-10-01 22:16:00
1:36 PM,46.4,41.0,81,29.13,7.0,SSE,9.2,-,N/A,,Overcast,160,2013-10-01 22:36:00
1:56 PM,46.4,39.2,76,29.12,9.0,SE,6.9,-,N/A,,Mostly Cloudy,130,2013-10-01 22:56:00
2:16 PM,46.4,41.0,81,29.10,10.0,East,10.4,-,N/A,,Overcast,90,2013-10-01 23:16:00
2:36 PM,44.6,42.8,93,29.09,5.0,NE,9.2,-,N/A,,Overcast,50,2013-10-01 23:36:00
2:56 PM,44.6,42.8,93,29.08,5.0,NE,8.1,-,N/A,,Overcast,40,2013-10-01 23:56:00
3:16 PM,46.4,39.2,76,29.07,9.0,NNE,4.6,-,N/A,,Overcast,20,2013-10-02 00:16:00
3:36 PM,46.4,39.2,76,29.07,10.0,NW,11.5,-,N/A,,Mostly Cloudy,320,2013-10-02 00:36:00
3:56 PM,46.4,41.0,81,29.06,10.0,NW,15.0,18.4,N/A,,Overcast,320,2013-10-02 00:56:00
4:16 PM,46.4,41.0,81,29.06,10.0,WNW,17.3,24.2,N/A,,Mostly Cloudy,290,2013-10-02 01:16:00
4:36 PM,46.4,42.8,87,29.06,9.0,WNW,10.4,18.4,N/A,,Overcast,300,2013-10-02 01:36:00
4:56 PM,48.2,42.8,82,29.06,10.0,NW,12.7,-,N/A,,Overcast,320,2013-10-02 01:56:00
5:16 PM,48.2,39.2,71,29.08,10.0,NW,17.3,23.0,N/A,,Overcast,320,2013-10-02 02:16:00
5:36 PM,46.4,39.2,76,29.09,10.0,NW,23.0,29.9,N/A,,Overcast,320,2013-10-02 02:36:00
5:56 PM,46.4,39.2,76,29.11,7.0,NW,18.4,25.3,N/A,,Overcast,320,2013-10-02 02:56:00
6:16 PM,46.4,39.2,76,29.12,5.0,NW,23.0,29.9,N/A,,Mostly Cloudy,320,2013-10-02 03:16:00
6:36 PM,46.4,39.2,76,29.13,4.0,NNW,21.9,28.8,N/A,,Overcast,330,2013-10-02 03:36:00
6:56 PM,46.4,41.0,81,29.14,10.0,NW,23.0,28.8,N/A,,Mostly Cloudy,320,2013-10-02 03:56:00
7:16 PM,46.4,39.2,76,29.16,10.0,NNW,19.6,28.8,N/A,,Overcast,330,2013-10-02 04:16:00
7:36 PM,46.4,39.2,76,29.16,10.0,WNW,18.4,23.0,N/A,,Overcast,300,2013-10-02 04:36:00
7:56 PM,46.4,41.0,81,29.18,10.0,WNW,13.8,21.9,N/A,,Overcast,300,2013-10-02 04:56:00
8:16 PM,46.4,41.0,81,29.18,10.0,WNW,13.8,-,N/A,,Overcast,290,2013-10-02 05:16:00
8:36 PM,46.4,39.2,76,29.19,10.0,WNW,13.8,-,N/A,,Overcast,300,2013-10-02 05:36:00
8:56 PM,46.4,41.0,81,29.20,10.0,NW,13.8,19.6,N/A,,Overcast,310,2013-10-02 05:56:00
9:16 PM,46.4,41.0,81,29.21,10.0,NW,11.5,16.1,N/A,,Overcast,310,2013-10-02 06:16:00
9:36 PM,46.4,41.0,81,29.21,5.0,WNW,11.5,-,N/A,,Overcast,300,2013-10-02 06:36:00
9:56 PM,46.4,41.0,81,29.21,10.0,NW,19.6,25.3,N/A,,Overcast,320,2013-10-02 06:56:00
10:16 PM,46.4,39.2,76,29.23,10.0,WNW,19.6,27.6,N/A,,Overcast,300,2013-10-02 07:16:00
10:36 PM,46.4,41.0,81,29.24,7.0,NW,20.7,31.1,N/A,,Overcast,310,2013-10-02 07:36:00
10:56 PM,46.4,41.0,81,29.25,4.0,NW,19.6,28.8,N/A,,Mostly Cloudy,320,2013-10-02 07:56:00
11:16 PM,46.4,41.0,81,29.26,10.0,NNW,19.6,31.1,N/A,,Overcast,330,2013-10-02 08:16:00
11:36 PM,-9999,-9999,N/A,29.26,2.5,NNW,32.2,40.3,N/A,,Overcast,330,2013-10-02 08:36:00
11:56 PM,-9999,-9999,N/A,29.28,6.0,NNW,25.3,38.0,N/A,,Overcast,330,2013-10-02 08:56:00